sensor_id;sensor_type;location;lat;lon;timestamp;pressure;altitude;pressure_sealevel;temperature;humidity
1207;BME280;593;53.184;8.216;2024-02-28T00:02:17;101554.97;;;6.00;100.00
1207;BME280;593;53.184;8.216;2024-02-28T00:04:43;101552.50;;;5.98;100.00
1207;BME280;593;53.184;8.216;2024-02-28T00:07:08;101568.78;;;5.92;100.00
1207;BME280;593;53.184;8.216;2024-02-28T00:09:34;101563.19;;;5.93;100.00
1207;BME280;593;53.184;8.216;2024-02-28T00:11:59;101560.78;;;5.85;100.00
1207;BME280;593;53.184;8.216;2024-02-28T00:14:24;101558.47;;;5.89;100.00
1207;BME280;593;53.184;8.216;2024-02-28T00:16:50;101553.53;;;5.86;100.00
1207;BME280;593;53.184;8.216;2024-02-28T00:19:16;101558.50;;;5.82;100.00
1207;BME280;593;53.184;8.216;2024-02-28T00:21:43;101538.31;;;5.73;100.00
1207;BME280;593;53.184;8.216;2024-02-28T00:24:09;101534.78;;;5.72;100.00
1207;BME280;593;53.184;8.216;2024-02-28T00:26:34;101514.78;;;5.62;100.00
1207;BME280;593;53.184;8.216;2024-02-28T00:29:00;101534.25;;;5.64;100.00
1207;BME280;593;53.184;8.216;2024-02-28T00:31:25;101539.31;;;5.60;100.00
1207;BME280;593;53.184;8.216;2024-02-28T00:33:51;101545.97;;;5.58;100.00
1207;BME280;593;53.184;8.216;2024-02-28T00:36:18;101535.59;;;5.43;100.00
1207;BME280;593;53.184;8.216;2024-02-28T00:38:43;101556.03;;;5.51;100.00
1207;BME280;593;53.184;8.216;2024-02-28T00:41:09;101546.97;;;5.45;100.00
1207;BME280;593;53.184;8.216;2024-02-28T00:43:34;101556.69;;;5.46;100.00
1207;BME280;593;53.184;8.216;2024-02-28T00:46:00;101542.84;;;5.43;100.00
1207;BME280;593;53.184;8.216;2024-02-28T00:48:25;101543.53;;;5.38;100.00
1207;BME280;593;53.184;8.216;2024-02-28T00:50:52;101533.06;;;5.30;100.00
1207;BME280;593;53.184;8.216;2024-02-28T00:53:18;101543.84;;;5.30;100.00
1207;BME280;593;53.184;8.216;2024-02-28T00:55:43;101545.56;;;5.25;100.00
1207;BME280;593;53.184;8.216;2024-02-28T00:58:09;101541.28;;;5.17;100.00
1207;BME280;593;53.184;8.216;2024-02-28T01:00:35;101556.19;;;5.19;100.00
1207;BME280;593;53.184;8.216;2024-02-28T01:03:00;101553.16;;;5.16;100.00
1207;BME280;593;53.184;8.216;2024-02-28T01:05:29;101540.56;;;5.10;100.00
1207;BME280;593;53.184;8.216;2024-02-28T01:07:54;101535.84;;;5.05;100.00
1207;BME280;593;53.184;8.216;2024-02-28T01:10:20;101529.47;;;5.00;100.00
1207;BME280;593;53.184;8.216;2024-02-28T01:12:45;101529.91;;;4.97;100.00
1207;BME280;593;53.184;8.216;2024-02-28T01:15:10;101526.03;;;4.93;100.00
1207;BME280;593;53.184;8.216;2024-02-28T01:17:36;101518.63;;;4.88;100.00
1207;BME280;593;53.184;8.216;2024-02-28T01:20:01;101525.28;;;4.86;100.00
1207;BME280;593;53.184;8.216;2024-02-28T01:22:27;101534.00;;;4.81;100.00
1207;BME280;593;53.184;8.216;2024-02-28T01:24:52;101538.81;;;4.79;100.00
1207;BME280;593;53.184;8.216;2024-02-28T01:27:18;101537.19;;;4.78;100.00
1207;BME280;593;53.184;8.216;2024-02-28T01:29:43;101531.16;;;4.76;100.00
1207;BME280;593;53.184;8.216;2024-02-28T01:32:08;101540.50;;;4.74;100.00
1207;BME280;593;53.184;8.216;2024-02-28T01:34:34;101540.16;;;4.70;100.00
1207;BME280;593;53.184;8.216;2024-02-28T01:36:59;101542.00;;;4.70;100.00
1207;BME280;593;53.184;8.216;2024-02-28T01:39:24;101544.94;;;4.68;100.00
1207;BME280;593;53.184;8.216;2024-02-28T01:41:53;101537.91;;;4.67;100.00
1207;BME280;593;53.184;8.216;2024-02-28T01:44:20;101542.88;;;4.64;100.00
1207;BME280;593;53.184;8.216;2024-02-28T01:46:46;101552.03;;;4.63;100.00
1207;BME280;593;53.184;8.216;2024-02-28T01:49:11;101552.22;;;4.61;100.00
1207;BME280;593;53.184;8.216;2024-02-28T01:51:37;101549.53;;;4.61;100.00
1207;BME280;593;53.184;8.216;2024-02-28T01:54:03;101549.19;;;4.58;100.00
1207;BME280;593;53.184;8.216;2024-02-28T01:56:29;101539.72;;;4.48;100.00
1207;BME280;593;53.184;8.216;2024-02-28T01:58:56;101549.78;;;4.60;100.00
1207;BME280;593;53.184;8.216;2024-02-28T02:01:22;101552.69;;;4.58;100.00
1207;BME280;593;53.184;8.216;2024-02-28T02:03:47;101555.16;;;4.60;100.00
1207;BME280;593;53.184;8.216;2024-02-28T02:06:14;101553.72;;;4.57;100.00
1207;BME280;593;53.184;8.216;2024-02-28T02:08:40;101551.28;;;4.56;100.00
1207;BME280;593;53.184;8.216;2024-02-28T02:11:06;101531.69;;;4.42;100.00
1207;BME280;593;53.184;8.216;2024-02-28T02:13:31;101548.03;;;4.47;100.00
1207;BME280;593;53.184;8.216;2024-02-28T02:15:57;101537.84;;;4.49;100.00
1207;BME280;593;53.184;8.216;2024-02-28T02:18:22;101540.97;;;4.46;100.00
1207;BME280;593;53.184;8.216;2024-02-28T02:20:54;101532.69;;;4.47;100.00
1207;BME280;593;53.184;8.216;2024-02-28T02:23:22;101531.69;;;4.42;100.00
1207;BME280;593;53.184;8.216;2024-02-28T02:25:48;101537.25;;;4.47;100.00
1207;BME280;593;53.184;8.216;2024-02-28T02:28:14;101538.44;;;4.51;100.00
1207;BME280;593;53.184;8.216;2024-02-28T02:30:40;101536.16;;;4.54;100.00
1207;BME280;593;53.184;8.216;2024-02-28T02:33:07;101545.06;;;4.55;100.00
1207;BME280;593;53.184;8.216;2024-02-28T02:35:33;101544.38;;;4.60;100.00
1207;BME280;593;53.184;8.216;2024-02-28T02:37:59;101542.28;;;4.62;100.00
1207;BME280;593;53.184;8.216;2024-02-28T02:40:24;101532.19;;;4.57;100.00
1207;BME280;593;53.184;8.216;2024-02-28T02:42:49;101543.72;;;4.64;100.00
1207;BME280;593;53.184;8.216;2024-02-28T02:45:16;101529.88;;;4.61;100.00
1207;BME280;593;53.184;8.216;2024-02-28T02:47:41;101542.09;;;4.63;100.00
1207;BME280;593;53.184;8.216;2024-02-28T02:50:09;101532.75;;;4.66;100.00
1207;BME280;593;53.184;8.216;2024-02-28T02:52:34;101534.81;;;4.64;100.00
1207;BME280;593;53.184;8.216;2024-02-28T02:55:00;101539.16;;;4.65;100.00
1207;BME280;593;53.184;8.216;2024-02-28T02:57:25;101542.84;;;4.70;100.00
1207;BME280;593;53.184;8.216;2024-02-28T02:59:50;101542.00;;;4.70;100.00
1207;BME280;593;53.184;8.216;2024-02-28T03:02:16;101553.97;;;4.74;100.00
1207;BME280;593;53.184;8.216;2024-02-28T03:04:41;101552.94;;;4.75;100.00
1207;BME280;593;53.184;8.216;2024-02-28T03:07:07;101544.72;;;4.70;100.00
1207;BME280;593;53.184;8.216;2024-02-28T03:09:32;101565.97;;;4.78;100.00
1207;BME280;593;53.184;8.216;2024-02-28T03:11:59;101565.38;;;4.76;100.00
1207;BME280;593;53.184;8.216;2024-02-28T03:14:25;101555.22;;;4.78;100.00
1207;BME280;593;53.184;8.216;2024-02-28T03:16:52;101559.09;;;4.82;100.00
1207;BME280;593;53.184;8.216;2024-02-28T03:19:18;101560.97;;;4.81;100.00
1207;BME280;593;53.184;8.216;2024-02-28T03:21:44;101568.00;;;4.82;100.00
1207;BME280;593;53.184;8.216;2024-02-28T03:24:10;101557.66;;;4.79;100.00
1207;BME280;593;53.184;8.216;2024-02-28T03:26:35;101562.38;;;4.84;100.00
1207;BME280;593;53.184;8.216;2024-02-28T03:29:01;101551.44;;;4.79;100.00
1207;BME280;593;53.184;8.216;2024-02-28T03:31:27;101552.66;;;4.83;100.00
1207;BME280;593;53.184;8.216;2024-02-28T03:33:52;101547.47;;;4.81;100.00
1207;BME280;593;53.184;8.216;2024-02-28T03:36:17;101549.97;;;4.83;100.00
1207;BME280;593;53.184;8.216;2024-02-28T03:38:43;101544.00;;;4.81;100.00
1207;BME280;593;53.184;8.216;2024-02-28T03:41:08;101526.59;;;4.77;100.00
1207;BME280;593;53.184;8.216;2024-02-28T03:43:34;101545.41;;;4.83;100.00
1207;BME280;593;53.184;8.216;2024-02-28T03:45:59;101552.66;;;4.83;100.00
1207;BME280;593;53.184;8.216;2024-02-28T03:48:25;101545.78;;;4.87;100.00
1207;BME280;593;53.184;8.216;2024-02-28T03:50:50;101540.38;;;4.87;100.00
1207;BME280;593;53.184;8.216;2024-02-28T03:53:19;101539.34;;;4.88;100.00
1207;BME280;593;53.184;8.216;2024-02-28T03:55:44;101537.53;;;4.82;100.00
1207;BME280;593;53.184;8.216;2024-02-28T03:58:10;101544.75;;;4.88;100.00
1207;BME280;593;53.184;8.216;2024-02-28T04:00:36;101550.97;;;4.88;100.00
1207;BME280;593;53.184;8.216;2024-02-28T04:03:02;101548.28;;;4.88;100.00
1207;BME280;593;53.184;8.216;2024-02-28T04:05:28;101549.06;;;4.89;100.00
1207;BME280;593;53.184;8.216;2024-02-28T04:07:54;101555.72;;;4.86;100.00
1207;BME280;593;53.184;8.216;2024-02-28T04:10:19;101536.34;;;4.78;100.00
1207;BME280;593;53.184;8.216;2024-02-28T04:12:44;101556.19;;;4.83;100.00
1207;BME280;593;53.184;8.216;2024-02-28T04:15:11;101556.19;;;4.83;100.00
1207;BME280;593;53.184;8.216;2024-02-28T04:17:37;101551.59;;;4.84;100.00
1207;BME280;593;53.184;8.216;2024-02-28T04:20:03;101539.25;;;4.76;100.00
1207;BME280;593;53.184;8.216;2024-02-28T04:22:30;101549.13;;;4.82;100.00
1207;BME280;593;53.184;8.216;2024-02-28T04:24:57;101551.84;;;4.82;100.00
1207;BME280;593;53.184;8.216;2024-02-28T04:27:22;101558.88;;;4.83;100.00
1207;BME280;593;53.184;8.216;2024-02-28T04:29:48;101553.50;;;4.83;100.00
1207;BME280;593;53.184;8.216;2024-02-28T04:32:13;101548.38;;;4.75;100.00
1207;BME280;593;53.184;8.216;2024-02-28T04:34:39;101558.88;;;4.83;100.00
1207;BME280;593;53.184;8.216;2024-02-28T04:37:04;101551.59;;;4.84;100.00
1207;BME280;593;53.184;8.216;2024-02-28T04:39:29;101547.28;;;4.83;100.00
1207;BME280;593;53.184;8.216;2024-02-28T04:41:55;101556.19;;;4.83;100.00
1207;BME280;593;53.184;8.216;2024-02-28T04:44:20;101558.25;;;4.81;100.00
1207;BME280;593;53.184;8.216;2024-02-28T04:46:45;101546.53;;;4.76;100.00
1207;BME280;593;53.184;8.216;2024-02-28T04:49:11;101554.13;;;4.79;100.00
1207;BME280;593;53.184;8.216;2024-02-28T04:51:36;101554.78;;;4.81;100.00
1207;BME280;593;53.184;8.216;2024-02-28T04:54:02;101537.47;;;4.70;100.00
1207;BME280;593;53.184;8.216;2024-02-28T04:56:27;101554.13;;;4.79;100.00
1207;BME280;593;53.184;8.216;2024-02-28T04:58:52;101559.91;;;4.82;100.00
1207;BME280;593;53.184;8.216;2024-02-28T05:01:18;101566.34;;;4.81;100.00
1207;BME280;593;53.184;8.216;2024-02-28T05:03:43;101557.00;;;4.84;100.00
1207;BME280;593;53.184;8.216;2024-02-28T05:06:09;101545.69;;;4.75;100.00
1207;BME280;593;53.184;8.216;2024-02-28T05:08:37;101551.84;;;4.82;100.00
1207;BME280;593;53.184;8.216;2024-02-28T05:11:03;101562.22;;;4.79;100.00
1207;BME280;593;53.184;8.216;2024-02-28T05:13:28;101567.19;;;4.82;100.00
1207;BME280;593;53.184;8.216;2024-02-28T05:15:53;101562.19;;;4.85;100.00
1207;BME280;593;53.184;8.216;2024-02-28T05:18:19;101568.41;;;4.86;100.00
1207;BME280;593;53.184;8.216;2024-02-28T05:20:45;101565.47;;;4.87;100.00
1207;BME280;593;53.184;8.216;2024-02-28T05:23:10;101566.75;;;4.85;100.00
1207;BME280;593;53.184;8.216;2024-02-28T05:25:36;101565.91;;;4.84;100.00
1207;BME280;593;53.184;8.216;2024-02-28T05:28:01;101563.81;;;4.86;100.00
1207;BME280;593;53.184;8.216;2024-02-28T05:30:27;101562.78;;;4.87;100.00
1207;BME280;593;53.184;8.216;2024-02-28T05:32:52;101567.13;;;4.88;100.00
1207;BME280;593;53.184;8.216;2024-02-28T05:35:18;101564.19;;;4.90;100.00
1207;BME280;593;53.184;8.216;2024-02-28T05:37:44;101568.75;;;4.89;100.00
1207;BME280;593;53.184;8.216;2024-02-28T05:40:12;101568.75;;;4.89;100.00
1207;BME280;593;53.184;8.216;2024-02-28T05:42:38;101570.41;;;4.90;100.00
1207;BME280;593;53.184;8.216;2024-02-28T05:45:05;101574.16;;;4.89;100.00
1207;BME280;593;53.184;8.216;2024-02-28T05:47:31;101573.13;;;4.90;100.00
1207;BME280;593;53.184;8.216;2024-02-28T05:49:56;101579.34;;;4.91;100.00
1207;BME280;593;53.184;8.216;2024-02-28T05:52:24;101576.63;;;4.91;100.00
1207;BME280;593;53.184;8.216;2024-02-28T05:54:51;101572.53;;;4.88;100.00
1207;BME280;593;53.184;8.216;2024-02-28T05:57:16;101573.31;;;4.89;100.00
1207;BME280;593;53.184;8.216;2024-02-28T05:59:42;101580.97;;;4.92;100.00
1207;BME280;593;53.184;8.216;2024-02-28T06:02:08;101570.25;;;4.85;100.00
1207;BME280;593;53.184;8.216;2024-02-28T06:04:33;101567.50;;;4.92;100.00
1207;BME280;593;53.184;8.216;2024-02-28T06:07:01;101578.66;;;4.95;100.00
1207;BME280;593;53.184;8.216;2024-02-28T06:09:27;101573.28;;;4.95;100.00
1207;BME280;593;53.184;8.216;2024-02-28T06:11:53;101579.50;;;4.96;100.00
1207;BME280;593;53.184;8.216;2024-02-28T06:14:18;101579.69;;;4.94;100.00
1207;BME280;593;53.184;8.216;2024-02-28T06:16:47;101584.50;;;4.92;100.00
1207;BME280;593;53.184;8.216;2024-02-28T06:19:12;101593.19;;;4.94;100.00
1207;BME280;593;53.184;8.216;2024-02-28T06:21:38;101589.44;;;4.95;100.00
1207;BME280;593;53.184;8.216;2024-02-28T06:24:03;101593.78;;;4.96;100.00
1207;BME280;593;53.184;8.216;2024-02-28T06:26:30;101606.22;;;4.97;100.00
1207;BME280;593;53.184;8.216;2024-02-28T06:28:57;101605.38;;;4.97;100.00
1207;BME280;593;53.184;8.216;2024-02-28T06:31:27;101608.91;;;4.97;100.00
1207;BME280;593;53.184;8.216;2024-02-28T06:33:55;101607.03;;;4.98;100.00
1207;BME280;593;53.184;8.216;2024-02-28T06:36:20;101618.84;;;4.97;100.00
1207;BME280;593;53.184;8.216;2024-02-28T06:38:46;101616.75;;;4.99;100.00
1207;BME280;593;53.184;8.216;2024-02-28T06:41:11;101626.75;;;4.98;100.00
1207;BME280;593;53.184;8.216;2024-02-28T06:43:36;101630.03;;;5.00;100.00
1207;BME280;593;53.184;8.216;2024-02-28T06:46:02;101635.44;;;5.00;100.00
1207;BME280;593;53.184;8.216;2024-02-28T06:48:28;101637.53;;;4.98;100.00
1207;BME280;593;53.184;8.216;2024-02-28T06:50:54;101634.84;;;4.98;100.00
1207;BME280;593;53.184;8.216;2024-02-28T06:53:20;101637.88;;;5.02;100.00
1207;BME280;593;53.184;8.216;2024-02-28T06:55:45;101639.56;;;5.03;100.00
1207;BME280;593;53.184;8.216;2024-02-28T06:58:14;101640.38;;;5.03;100.00
1207;BME280;593;53.184;8.216;2024-02-28T07:00:40;101640.97;;;5.05;100.00
1207;BME280;593;53.184;8.216;2024-02-28T07:03:06;101632.28;;;5.03;100.00
1207;BME280;593;53.184;8.216;2024-02-28T07:05:32;101637.69;;;5.03;100.00
1207;BME280;593;53.184;8.216;2024-02-28T07:08:02;101624.41;;;5.02;100.00
1207;BME280;593;53.184;8.216;2024-02-28T07:10:28;101638.88;;;5.07;100.00
1207;BME280;593;53.184;8.216;2024-02-28T07:12:53;101630.78;;;5.07;100.00
1207;BME280;593;53.184;8.216;2024-02-28T07:15:19;101631.81;;;5.06;100.00
1207;BME280;593;53.184;8.216;2024-02-28T07:17:46;101630.88;;;5.01;100.00
1207;BME280;593;53.184;8.216;2024-02-28T07:20:12;101636.63;;;5.04;100.00
1207;BME280;593;53.184;8.216;2024-02-28T07:22:37;101636.63;;;5.04;100.00
1207;BME280;593;53.184;8.216;2024-02-28T07:25:04;101635.00;;;5.03;100.00
1207;BME280;593;53.184;8.216;2024-02-28T07:27:30;101644.72;;;5.04;100.00
1207;BME280;593;53.184;8.216;2024-02-28T07:29:56;101643.44;;;5.07;100.00
1207;BME280;593;53.184;8.216;2024-02-28T07:32:21;101636.03;;;5.02;100.00
1207;BME280;593;53.184;8.216;2024-02-28T07:34:46;101645.31;;;5.06;100.00
1207;BME280;593;53.184;8.216;2024-02-28T07:37:12;101648.63;;;5.08;100.00
1207;BME280;593;53.184;8.216;2024-02-28T07:39:37;101648.41;;;5.10;100.00
1207;BME280;593;53.184;8.216;2024-02-28T07:42:03;101651.31;;;5.08;100.00
1207;BME280;593;53.184;8.216;2024-02-28T07:44:28;101661.88;;;5.10;100.00
1207;BME280;593;53.184;8.216;2024-02-28T07:46:59;101666.00;;;5.12;100.00
1207;BME280;593;53.184;8.216;2024-02-28T07:49:25;101664.81;;;5.08;100.00
1207;BME280;593;53.184;8.216;2024-02-28T07:51:51;101668.69;;;5.12;100.00
1207;BME280;593;53.184;8.216;2024-02-28T07:54:16;101666.00;;;5.12;100.00
1207;BME280;593;53.184;8.216;2024-02-28T07:56:44;101655.44;;;5.11;100.00
1207;BME280;593;53.184;8.216;2024-02-28T07:59:09;101667.00;;;5.18;100.00
1207;BME280;593;53.184;8.216;2024-02-28T08:01:35;101667.19;;;5.16;100.00
1207;BME280;593;53.184;8.216;2024-02-28T08:04:01;101669.88;;;5.16;100.00
1207;BME280;593;53.184;8.216;2024-02-28T08:06:27;101669.72;;;5.11;100.00
1207;BME280;593;53.184;8.216;2024-02-28T08:08:52;101671.56;;;5.17;100.00
1207;BME280;593;53.184;8.216;2024-02-28T08:11:18;101681.06;;;5.20;100.00
1207;BME280;593;53.184;8.216;2024-02-28T08:13:44;101682.50;;;5.23;100.00
1207;BME280;593;53.184;8.216;2024-02-28T08:16:09;101669.88;;;5.16;100.00
1207;BME280;593;53.184;8.216;2024-02-28T08:18:35;101684.97;;;5.24;100.00
1207;BME280;593;53.184;8.216;2024-02-28T08:21:00;101686.63;;;5.25;100.00
1207;BME280;593;53.184;8.216;2024-02-28T08:23:27;101699.88;;;5.27;100.00
1207;BME280;593;53.184;8.216;2024-02-28T08:25:52;101694.72;;;5.25;100.00
1207;BME280;593;53.184;8.216;2024-02-28T08:28:18;101693.00;;;5.31;100.00
1207;BME280;593;53.184;8.216;2024-02-28T08:30:44;101695.47;;;5.32;100.00
1207;BME280;593;53.184;8.216;2024-02-28T08:33:09;101694.63;;;5.32;100.00
1207;BME280;593;53.184;8.216;2024-02-28T08:35:36;101689.84;;;5.34;100.00
1207;BME280;593;53.184;8.216;2024-02-28T08:38:01;101690.47;;;5.36;100.00
1207;BME280;593;53.184;8.216;2024-02-28T08:40:28;101690.81;;;5.39;100.00
1207;BME280;593;53.184;8.216;2024-02-28T08:42:54;101691.06;;;5.38;100.00
1207;BME280;593;53.184;8.216;2024-02-28T08:45:19;101699.75;;;5.40;100.00
1207;BME280;593;53.184;8.216;2024-02-28T08:47:45;101705.16;;;5.40;100.00
1207;BME280;593;53.184;8.216;2024-02-28T08:50:10;101706.34;;;5.44;100.00
1207;BME280;593;53.184;8.216;2024-02-28T08:52:36;101710.47;;;5.46;100.00
1207;BME280;593;53.184;8.216;2024-02-28T08:55:02;101712.97;;;5.48;100.00
1207;BME280;593;53.184;8.216;2024-02-28T08:57:28;101715.41;;;5.49;100.00
1207;BME280;593;53.184;8.216;2024-02-28T08:59:55;101715.22;;;5.51;100.00
1207;BME280;593;53.184;8.216;2024-02-28T09:02:21;101711.69;;;5.50;100.00
1207;BME280;593;53.184;8.216;2024-02-28T09:04:47;101713.56;;;5.50;100.00
1207;BME280;593;53.184;8.216;2024-02-28T09:07:17;101718.88;;;5.56;100.00
1207;BME280;593;53.184;8.216;2024-02-28T09:09:45;101720.78;;;5.56;100.00
1207;BME280;593;53.184;8.216;2024-02-28T09:12:11;101737.13;;;5.61;100.00
1207;BME280;593;53.184;8.216;2024-02-28T09:14:36;101732.31;;;5.63;100.00
1207;BME280;593;53.184;8.216;2024-02-28T09:17:01;101732.91;;;5.65;100.00
1207;BME280;593;53.184;8.216;2024-02-28T09:19:30;101739.97;;;5.66;100.00
1207;BME280;593;53.184;8.216;2024-02-28T09:21:56;101742.81;;;5.71;100.00
1207;BME280;593;53.184;8.216;2024-02-28T09:24:23;101730.59;;;5.68;100.00
1207;BME280;593;53.184;8.216;2024-02-28T09:26:48;101742.16;;;5.75;100.00
1207;BME280;593;53.184;8.216;2024-02-28T09:29:14;101739.22;;;5.77;100.00
1207;BME280;593;53.184;8.216;2024-02-28T09:31:39;101746.88;;;5.80;100.00
1207;BME280;593;53.184;8.216;2024-02-28T09:34:04;101751.00;;;5.82;100.00
1207;BME280;593;53.184;8.216;2024-02-28T09:36:34;101753.69;;;5.82;100.00
1207;BME280;593;53.184;8.216;2024-02-28T09:39:04;101765.13;;;5.85;100.00
1207;BME280;593;53.184;8.216;2024-02-28T09:41:30;101755.75;;;5.87;100.00
1207;BME280;593;53.184;8.216;2024-02-28T09:43:56;101750.94;;;5.89;100.00
1207;BME280;593;53.184;8.216;2024-02-28T09:46:22;101741.66;;;5.85;100.00
1207;BME280;593;53.184;8.216;2024-02-28T09:48:48;101751.91;;;5.95;100.00
1207;BME280;593;53.184;8.216;2024-02-28T09:51:18;101746.75;;;5.93;100.00
1207;BME280;593;53.184;8.216;2024-02-28T09:53:46;101741.81;;;5.90;100.00
1207;BME280;593;53.184;8.216;2024-02-28T09:56:11;101751.47;;;5.98;100.00
1207;BME280;593;53.184;8.216;2024-02-28T09:58:38;101745.84;;;5.99;100.00
1207;BME280;593;53.184;8.216;2024-02-28T10:01:07;101751.03;;;6.01;100.00
1207;BME280;593;53.184;8.216;2024-02-28T10:03:35;101747.50;;;6.00;100.00
1207;BME280;593;53.184;8.216;2024-02-28T10:06:01;101747.66;;;6.05;100.00
1207;BME280;593;53.184;8.216;2024-02-28T10:08:27;101756.59;;;6.06;100.00
1207;BME280;593;53.184;8.216;2024-02-28T10:10:54;101749.06;;;6.08;100.00
1207;BME280;593;53.184;8.216;2024-02-28T10:13:21;101741.56;;;6.10;100.00
1207;BME280;593;53.184;8.216;2024-02-28T10:15:49;101750.50;;;6.10;100.00
1207;BME280;593;53.184;8.216;2024-02-28T10:18:14;101751.94;;;6.13;100.00
1207;BME280;593;53.184;8.216;2024-02-28T10:20:40;101739.91;;;6.09;100.00
1207;BME280;593;53.184;8.216;2024-02-28T10:23:06;101745.84;;;6.17;100.00
1207;BME280;593;53.184;8.216;2024-02-28T10:25:33;101747.72;;;6.17;100.00
1207;BME280;593;53.184;8.216;2024-02-28T10:28:00;101749.13;;;6.19;100.00
1207;BME280;593;53.184;8.216;2024-02-28T10:30:26;101749.97;;;6.20;100.00
1207;BME280;593;53.184;8.216;2024-02-28T10:32:51;101742.91;;;6.19;100.00
1207;BME280;593;53.184;8.216;2024-02-28T10:35:17;101757.69;;;6.16;100.00
1207;BME280;593;53.184;8.216;2024-02-28T10:37:51;101752.91;;;6.18;100.00
1207;BME280;593;53.184;8.216;2024-02-28T10:40:19;101752.44;;;6.21;100.00
1207;BME280;593;53.184;8.216;2024-02-28T10:42:45;101753.63;;;6.25;100.00
1207;BME280;593;53.184;8.216;2024-02-28T10:45:13;101758.59;;;6.28;100.00
1207;BME280;593;53.184;8.216;2024-02-28T10:47:39;101762.72;;;6.31;100.00
1207;BME280;593;53.184;8.216;2024-02-28T10:50:05;101761.19;;;6.35;100.00
1207;BME280;593;53.184;8.216;2024-02-28T10:52:34;101762.63;;;6.37;100.00
1207;BME280;593;53.184;8.216;2024-02-28T10:55:01;101757.81;;;6.39;100.00
1207;BME280;593;53.184;8.216;2024-02-28T10:57:29;101761.94;;;6.42;100.00
1207;BME280;593;53.184;8.216;2024-02-28T10:59:55;101760.66;;;6.44;100.00
1207;BME280;593;53.184;8.216;2024-02-28T11:02:22;101756.66;;;6.47;100.00
1207;BME280;593;53.184;8.216;2024-02-28T11:04:51;101763.63;;;6.55;100.00
1207;BME280;593;53.184;8.216;2024-02-28T11:07:20;101762.34;;;6.57;100.00
1207;BME280;593;53.184;8.216;2024-02-28T11:09:47;101758.38;;;6.60;100.00
1207;BME280;593;53.184;8.216;2024-02-28T11:12:26;101746.72;;;6.59;100.00
1207;BME280;593;53.184;8.216;2024-02-28T11:15:02;101756.19;;;6.68;100.00
1207;BME280;593;53.184;8.216;2024-02-28T11:17:30;101760.06;;;6.72;100.00
1207;BME280;593;53.184;8.216;2024-02-28T11:19:59;101760.19;;;6.77;100.00
1207;BME280;593;53.184;8.216;2024-02-28T11:22:28;101759.50;;;6.82;100.00
1207;BME280;593;53.184;8.216;2024-02-28T11:24:54;101760.13;;;6.84;100.00
1207;BME280;593;53.184;8.216;2024-02-28T11:27:20;101760.72;;;6.86;100.00
1207;BME280;593;53.184;8.216;2024-02-28T11:29:46;101762.25;;;6.93;100.00
1207;BME280;593;53.184;8.216;2024-02-28T11:32:13;101770.50;;;6.98;100.00
1207;BME280;593;53.184;8.216;2024-02-28T11:34:39;101776.25;;;7.02;100.00
1207;BME280;593;53.184;8.216;2024-02-28T11:37:06;101759.56;;;7.05;100.00
1207;BME280;593;53.184;8.216;2024-02-28T11:39:31;101758.03;;;7.09;100.00
1207;BME280;593;53.184;8.216;2024-02-28T11:42:15;101758.41;;;7.13;100.00
1207;BME280;593;53.184;8.216;2024-02-28T11:44:41;101751.47;;;7.17;100.00
1207;BME280;593;53.184;8.216;2024-02-28T11:47:08;101748.66;;;7.23;100.00
1207;BME280;593;53.184;8.216;2024-02-28T11:49:36;101741.97;;;7.26;100.00
1207;BME280;593;53.184;8.216;2024-02-28T11:52:02;101747.50;;;7.31;100.00
1207;BME280;593;53.184;8.216;2024-02-28T11:54:28;101742.69;;;7.33;100.00
1207;BME280;593;53.184;8.216;2024-02-28T11:56:53;101739.25;;;7.37;100.00
1207;BME280;593;53.184;8.216;2024-02-28T11:59:19;101747.50;;;7.42;100.00
1207;BME280;593;53.184;8.216;2024-02-28T12:01:44;101740.78;;;7.45;100.00
1207;BME280;593;53.184;8.216;2024-02-28T12:04:11;101738.00;;;7.51;100.00
1207;BME280;593;53.184;8.216;2024-02-28T12:06:37;101737.28;;;7.56;100.00
1207;BME280;593;53.184;8.216;2024-02-28T12:09:04;101741.41;;;7.58;100.00
1207;BME280;593;53.184;8.216;2024-02-28T12:11:30;101738.81;;;7.63;100.00
1207;BME280;593;53.184;8.216;2024-02-28T12:13:56;101742.69;;;7.67;100.00
1207;BME280;593;53.184;8.216;2024-02-28T12:16:23;101740.09;;;7.72;100.00
1207;BME280;593;53.184;8.216;2024-02-28T12:18:49;101732.53;;;7.74;100.00
1207;BME280;593;53.184;8.216;2024-02-28T12:21:14;101726.31;;;7.74;100.00
1207;BME280;593;53.184;8.216;2024-02-28T12:23:40;101733.22;;;7.82;100.00
1207;BME280;593;53.184;8.216;2024-02-28T12:26:05;101731.94;;;7.84;100.00
1207;BME280;593;53.184;8.216;2024-02-28T12:28:31;101721.47;;;7.88;100.00
1207;BME280;593;53.184;8.216;2024-02-28T12:30:56;101723.44;;;7.92;100.00
1207;BME280;593;53.184;8.216;2024-02-28T12:33:22;101717.56;;;7.95;100.00
1207;BME280;593;53.184;8.216;2024-02-28T12:35:48;101714.03;;;7.95;100.00
1207;BME280;593;53.184;8.216;2024-02-28T12:38:13;101709.28;;;8.02;100.00
1207;BME280;593;53.184;8.216;2024-02-28T12:40:40;101710.47;;;8.06;100.00
1207;BME280;593;53.184;8.216;2024-02-28T12:43:07;101703.75;;;8.08;100.00
1207;BME280;593;53.184;8.216;2024-02-28T12:45:33;101705.72;;;8.13;100.00
1207;BME280;593;53.184;8.216;2024-02-28T12:47:58;101705.00;;;8.17;100.00
1207;BME280;593;53.184;8.216;2024-02-28T12:50:24;101693.44;;;8.22;100.00
1207;BME280;593;53.184;8.216;2024-02-28T12:52:50;101696.50;;;8.25;100.00
1207;BME280;593;53.184;8.216;2024-02-28T12:55:19;101687.09;;;8.28;100.00
1207;BME280;593;53.184;8.216;2024-02-28T12:57:44;101684.75;;;8.31;100.00
1207;BME280;593;53.184;8.216;2024-02-28T13:00:10;101689.66;;;8.34;100.00
1207;BME280;593;53.184;8.216;2024-02-28T13:02:36;101690.25;;;8.36;100.00
1207;BME280;593;53.184;8.216;2024-02-28T13:05:01;101690.56;;;8.40;100.00
1207;BME280;593;53.184;8.216;2024-02-28T13:07:28;101677.75;;;8.35;100.00
1207;BME280;593;53.184;8.216;2024-02-28T13:09:55;101687.38;;;8.43;100.00
1207;BME280;593;53.184;8.216;2024-02-28T13:12:20;101684.03;;;8.53;100.00
1207;BME280;593;53.184;8.216;2024-02-28T13:14:46;101690.38;;;8.58;100.00
1207;BME280;593;53.184;8.216;2024-02-28T13:17:12;101690.69;;;8.62;100.00